Time;durP1;ratioP1;P1;durP2;ratioP2;P2;SDS_P1;SDS_P2;PMS_P1;PMS_P2;Temp;Humidity;BMP_temperature;BMP_pressure;BME280_temperature;BME280_humidity;BME280_pressure;Samples;Min_cycle;Max_cycle;Signal;HPM_P1;HPM_P2
2022/11/26 00:00:46;;;;;;;;;;;;;;;;;;4991897;28;2252;-45
2022/11/26 00:03:14;;;;;;;;;;;;;;;;;;4992052;28;1826;-44
2022/11/26 00:05:42;;;;;;;;;;;;;;;;;;4991981;28;1912;-44
2022/11/26 00:08:20;;;;;;;;;;;;;;;;;;4991979;28;2121;-44
2022/11/26 00:10:49;;;;;;;;;;;;;;;;;;4991998;28;2066;-43
2022/11/26 00:13:20;;;;;;;;;;;;;;;;;;4992007;28;2037;-44
2022/11/26 00:15:48;;;;;;;;;;;;;;;;;;4992199;28;2091;-45
2022/11/26 00:18:18;;;;;;;;;;;;;;;;;;4999141;28;1881;-44
2022/11/26 00:20:48;;;;;;;;;;;;;;;;;;5011978;28;1773;-45
2022/11/26 00:23:19;;;;;;;;;;;;;;;;;;5026458;28;1922;-45
2022/11/26 00:25:49;;;;;;;;;;;;;;;;;;5011654;28;1931;-47
2022/11/26 00:28:18;;;;;;;;;;;;;;;;;;5011719;28;1834;-45
2022/11/26 00:30:45;;;;;;;;;;;;;;;;;;5011699;28;2115;-47
2022/11/26 00:33:12;;;;;;;;;;;;;;;;;;5011345;28;1819;-45
2022/11/26 00:35:40;;;;;;;;;;;;;;;;;;5011361;28;2229;-46
2022/11/26 00:38:10;;;;;;;;;;;;;;;;;;5011456;28;1859;-47
2022/11/26 00:40:38;;;;;;;;;;;;;;;;;;5011366;28;1979;-43
2022/11/26 00:43:05;;;;;;;;;;;;;;;;;;5011323;28;2031;-46
2022/11/26 00:45:32;;;;;;;;;;;;;;;;;;5011269;28;1906;-45
2022/11/26 00:48:00;;;;;;;;;;;;;;;;;;5011229;28;1979;-45
2022/11/26 00:50:31;;;;;;;;;;;;;;;;;;5011411;28;2115;-46
2022/11/26 00:52:58;;;;;;;;;;;;;;;;;;5026615;28;2359;-44
2022/11/26 00:55:32;;;;;;;;;;;;;;;;;;5011188;28;2324;-45
2022/11/26 00:58:00;;;;;;;;;;;;;;;;;;5011145;28;2005;-46
2022/11/26 01:00:28;;;;;;;;;;;;;;;;;;5011348;28;1992;-44
2022/11/26 01:02:55;;;;;;;;;;;;;;;;;;5010982;28;1612;-45
2022/11/26 01:05:24;;;;;;;;;;;;;;;;;;5011109;28;2065;-48
2022/11/26 01:07:52;;;;;;;;;;;;;;;;;;5011604;28;1967;-44
2022/11/26 01:10:20;;;;;;;;;;;;;;;;;;5011431;28;1976;-45
2022/11/26 01:12:48;;;;;;;;;;;;;;;;;;5011523;28;1993;-44
2022/11/26 01:15:16;;;;;;;;;;;;;;;;;;5011338;28;1892;-44
2022/11/26 01:17:43;;;;;;;;;;;;;;;;;;5008266;28;2025;-44
2022/11/26 01:20:19;;;;;;;;;;;;;;;;;;4994901;28;2123;-46
2022/11/26 01:22:51;;;;;;;;;;;;;;;;;;4994970;28;2088;-45
2022/11/26 01:25:19;;;;;;;;;;;;;;;;;;4995256;28;1979;-47
2022/11/26 01:27:46;;;;;;;;;;;;;;;;;;4995059;28;1885;-45
2022/11/26 01:30:19;;;;;;;;;;;;;;;;;;4994758;28;2103;-45
2022/11/26 01:32:47;;;;;;;;;;;;;;;;;;4995073;28;1855;-44
2022/11/26 01:35:15;;;;;;;;;;;;;;;;;;4995008;28;1961;-44
2022/11/26 01:37:42;;;;;;;;;;;;;;;;;;5009763;28;1812;-45
2022/11/26 01:40:24;;;;;;;;;;;;;;;;;;4994591;28;2185;-42
2022/11/26 01:43:10;;;;;;;;;;;;;;;;;;4994643;28;1923;-44
2022/11/26 01:45:38;;;;;;;;;;;;;;;;;;5009459;28;1911;-45
2022/11/26 01:48:34;;;;;;;;;;;;;;;;;;4994665;28;1982;-44
2022/11/26 01:51:03;;;;;;;;;;;;;;;;;;4990233;28;1797;-44
2022/11/26 01:53:32;;;;;;;;;;;;;;;;;;4994324;28;1945;-44
2022/11/26 01:56:01;;;;;;;;;;;;;;;;;;4994376;28;1876;-44
2022/11/26 01:58:32;;;;;;;;;;;;;;;;;;4994289;28;2040;-45
2022/11/26 02:01:05;;;;;;;;;;;;;;;;;;4994219;28;1859;-45
2022/11/26 02:03:37;;;;;;;;;;;;;;;;;;4994275;28;1968;-43
2022/11/26 02:06:05;;;;;;;;;;;;;;;;;;4994243;28;1902;-46
2022/11/26 02:08:33;;;;;;;;;;;;;;;;;;4994353;28;2050;-46
2022/11/26 02:11:20;;;;;;;;;;;;;;;;;;4993860;28;1992;-45
2022/11/26 02:13:48;;;;;;;;;;;;;;;;;;4993860;28;1831;-44
2022/11/26 02:16:22;;;;;;;;;;;;;;;;;;4994231;28;1955;-44
2022/11/26 02:18:57;;;;;;;;;;;;;;;;;;5005686;28;2012;-45
2022/11/26 02:21:26;;;;;;;;;;;;;;;;;;5013579;28;1889;-44
2022/11/26 02:23:53;;;;;;;;;;;;;;;;;;5013447;28;1821;-44
2022/11/26 02:26:38;;;;;;;;;;;;;;;;;;5013502;28;2181;-44
2022/11/26 02:29:25;;;;;;;;;;;;;;;;;;5012769;28;1872;-44
2022/11/26 02:31:55;;;;;;;;;;;;;;;;;;5004009;28;1931;-46
2022/11/26 02:34:42;;;;;;;;;;;;;;;;;;4993785;28;1752;-44
2022/11/26 02:37:15;;;;;;;;;;;;;;;;;;4993799;28;2003;-43
2022/11/26 02:39:42;;;;;;;;;;;;;;;;;;4993709;28;1776;-43
2022/11/26 02:42:22;;;;;;;;;;;;;;;;;;4993576;28;1997;-44
2022/11/26 02:44:49;;;;;;;;;;;;;;;;;;4993415;28;1923;-43
2022/11/26 02:47:17;;;;;;;;;;;;;;;;;;4992841;28;2025;-44
2022/11/26 02:49:45;;;;;;;;;;;;;;;;;;4991926;28;1999;-45
2022/11/26 02:52:13;;;;;;;;;;;;;;;;;;4992168;28;2229;-45
2022/11/26 02:54:41;;;;;;;;;;;;;;;;;;4993208;28;1960;-43
2022/11/26 02:57:10;;;;;;;;;;;;;;;;;;4993134;28;1988;-44
2022/11/26 02:59:38;;;;;;;;;;;;;;;;;;4993206;28;1979;-45
2022/11/26 03:02:07;;;;;;;;;;;;;;;;;;4993205;28;1845;-45
2022/11/26 03:04:37;;;;;;;;;;;;;;;;;;4993070;28;2145;-46
2022/11/26 03:07:06;;;;;;;;;;;;;;;;;;4993000;28;1944;-47
2022/11/26 03:09:53;;;;;;;;;;;;;;;;;;4993112;28;2012;-45
2022/11/26 03:12:20;;;;;;;;;;;;;;;;;;4992968;28;2193;-44
2022/11/26 03:14:47;;;;;;;;;;;;;;;;;;4992986;28;2010;-45
2022/11/26 03:17:14;;;;;;;;;;;;;;;;;;4992869;28;1850;-45
2022/11/26 03:19:41;;;;;;;;;;;;;;;;;;5011317;28;1883;-43
2022/11/26 03:22:09;;;;;;;;;;;;;;;;;;5012402;28;2078;-43
2022/11/26 03:24:36;;;;;;;;;;;;;;;;;;5012159;28;1352;-44
2022/11/26 03:27:03;;;;;;;;;;;;;;;;;;5012350;28;2066;-45
2022/11/26 03:29:30;;;;;;;;;;;;;;;;;;5012456;28;1920;-43
2022/11/26 03:31:58;;;;;;;;;;;;;;;;;;5012490;28;1986;-44
2022/11/26 03:34:25;;;;;;;;;;;;;;;;;;5012410;28;2121;-43
2022/11/26 03:36:52;;;;;;;;;;;;;;;;;;5006561;28;1840;-46
2022/11/26 03:39:20;;;;;;;;;;;;;;;;;;4992411;28;1971;-43
2022/11/26 03:41:47;;;;;;;;;;;;;;;;;;4991929;28;1944;-46
2022/11/26 03:44:14;;;;;;;;;;;;;;;;;;4992516;28;2039;-46
2022/11/26 03:46:41;;;;;;;;;;;;;;;;;;4992350;28;2061;-44
2022/11/26 03:49:08;;;;;;;;;;;;;;;;;;4992434;28;2024;-46
2022/11/26 03:51:35;;;;;;;;;;;;;;;;;;4991886;28;2091;-44
2022/11/26 03:54:02;;;;;;;;;;;;;;;;;;4992274;28;2093;-45
2022/11/26 03:56:29;;;;;;;;;;;;;;;;;;4992534;28;1887;-45
2022/11/26 03:58:57;;;;;;;;;;;;;;;;;;4992321;28;2013;-43
2022/11/26 04:01:26;;;;;;;;;;;;;;;;;;4992424;28;1902;-44
2022/11/26 04:03:53;;;;;;;;;;;;;;;;;;4992029;28;1940;-44
2022/11/26 04:06:20;;;;;;;;;;;;;;;;;;4991826;28;2086;-43
2022/11/26 04:08:47;;;;;;;;;;;;;;;;;;4992369;28;1908;-45
2022/11/26 04:11:14;;;;;;;;;;;;;;;;;;4992048;28;2211;-47
2022/11/26 04:13:41;;;;;;;;;;;;;;;;;;5006948;28;2018;-42
2022/11/26 04:16:08;;;;;;;;;;;;;;;;;;4992132;28;1881;-45
2022/11/26 04:18:35;;;;;;;;;;;;;;;;;;5001588;28;2103;-43
2022/11/26 04:21:04;;;;;;;;;;;;;;;;;;5011682;28;1835;-43
2022/11/26 04:23:31;;;;;;;;;;;;;;;;;;5011548;28;2081;-44
2022/11/26 04:25:58;;;;;;;;;;;;;;;;;;5003546;28;2050;-42
2022/11/26 04:28:25;;;;;;;;;;;;;;;;;;4991785;28;2054;-43
2022/11/26 04:30:52;;;;;;;;;;;;;;;;;;4991996;28;1974;-44
2022/11/26 04:33:19;;;;;;;;;;;;;;;;;;4991869;28;2265;-46
2022/11/26 04:35:46;;;;;;;;;;;;;;;;;;4991803;28;1971;-46
2022/11/26 04:38:13;;;;;;;;;;;;;;;;;;4991808;28;2056;-45
2022/11/26 04:40:41;;;;;;;;;;;;;;;;;;4991746;28;1967;-45
2022/11/26 04:43:07;;;;;;;;;;;;;;;;;;4991957;28;2014;-46
2022/11/26 04:45:34;;;;;;;;;;;;;;;;;;4991538;28;2015;-42
2022/11/26 04:48:01;;;;;;;;;;;;;;;;;;4992065;28;1943;-44
2022/11/26 04:50:28;;;;;;;;;;;;;;;;;;4992026;28;1735;-44
2022/11/26 04:52:55;;;;;;;;;;;;;;;;;;4993311;28;2066;-46
2022/11/26 04:55:23;;;;;;;;;;;;;;;;;;5010600;28;2015;-46
2022/11/26 04:57:50;;;;;;;;;;;;;;;;;;4995611;28;2091;-45
2022/11/26 05:00:17;;;;;;;;;;;;;;;;;;4995183;28;2142;-44
2022/11/26 05:02:44;;;;;;;;;;;;;;;;;;4995482;28;1855;-44
2022/11/26 05:05:12;;;;;;;;;;;;;;;;;;5010122;28;1958;-43
2022/11/26 05:07:39;;;;;;;;;;;;;;;;;;4995277;28;2098;-47
2022/11/26 05:10:07;;;;;;;;;;;;;;;;;;4995233;28;2030;-46
2022/11/26 05:12:34;;;;;;;;;;;;;;;;;;4995543;28;2318;-45
2022/11/26 05:15:02;;;;;;;;;;;;;;;;;;4995424;28;1850;-46
2022/11/26 05:17:29;;;;;;;;;;;;;;;;;;4995825;28;2108;-43
2022/11/26 05:19:56;;;;;;;;;;;;;;;;;;5014570;28;1905;-45
2022/11/26 05:22:23;;;;;;;;;;;;;;;;;;5014570;28;2102;-46
2022/11/26 05:24:50;;;;;;;;;;;;;;;;;;5014521;28;1933;-43
2022/11/26 05:27:17;;;;;;;;;;;;;;;;;;5014548;28;2008;-47
2022/11/26 05:29:44;;;;;;;;;;;;;;;;;;5014224;28;2097;-45
2022/11/26 05:32:11;;;;;;;;;;;;;;;;;;5014572;28;2117;-47
2022/11/26 05:34:38;;;;;;;;;;;;;;;;;;5014390;28;1934;-47
2022/11/26 05:37:06;;;;;;;;;;;;;;;;;;5014629;28;1930;-45
2022/11/26 05:39:33;;;;;;;;;;;;;;;;;;5014497;28;2011;-47
2022/11/26 05:42:00;;;;;;;;;;;;;;;;;;5014044;28;2039;-44
2022/11/26 05:44:33;;;;;;;;;;;;;;;;;;5014496;28;1925;-44
2022/11/26 05:47:00;;;;;;;;;;;;;;;;;;5014197;28;1916;-46
2022/11/26 05:49:27;;;;;;;;;;;;;;;;;;5014093;28;2022;-44
2022/11/26 05:51:54;;;;;;;;;;;;;;;;;;5014219;28;2196;-44
2022/11/26 05:54:21;;;;;;;;;;;;;;;;;;5014020;28;2102;-44
2022/11/26 05:56:49;;;;;;;;;;;;;;;;;;5014233;28;2067;-46
2022/11/26 05:59:19;;;;;;;;;;;;;;;;;;5014035;28;1857;-45
2022/11/26 06:01:46;;;;;;;;;;;;;;;;;;5013892;28;2012;-45
2022/11/26 06:04:13;;;;;;;;;;;;;;;;;;5012986;28;1712;-46
2022/11/26 06:06:40;;;;;;;;;;;;;;;;;;5013862;28;2104;-45
2022/11/26 06:09:08;;;;;;;;;;;;;;;;;;5013920;28;1883;-48
2022/11/26 06:11:35;;;;;;;;;;;;;;;;;;5013842;28;1776;-44
2022/11/26 06:14:02;;;;;;;;;;;;;;;;;;5013437;28;2107;-46
2022/11/26 06:16:29;;;;;;;;;;;;;;;;;;5013543;28;1853;-45
2022/11/26 06:18:58;;;;;;;;;;;;;;;;;;5000943;28;1950;-46
2022/11/26 06:21:24;;;;;;;;;;;;;;;;;;4993896;28;1877;-45
2022/11/26 06:23:52;;;;;;;;;;;;;;;;;;4993869;28;1951;-44
2022/11/26 06:26:24;;;;;;;;;;;;;;;;;;4993816;28;2012;-53
2022/11/26 06:28:51;;;;;;;;;;;;;;;;;;4993839;28;1771;-48
2022/11/26 06:31:19;;;;;;;;;;;;;;;;;;4993832;28;1930;-47
2022/11/26 06:33:46;;;;;;;;;;;;;;;;;;4993889;28;2118;-45
2022/11/26 06:36:13;;;;;;;;;;;;;;;;;;4993146;28;2109;-44
2022/11/26 06:38:40;;;;;;;;;;;;;;;;;;4993684;28;2031;-43
2022/11/26 06:41:07;;;;;;;;;;;;;;;;;;4993910;28;1921;-46
2022/11/26 06:43:34;;;;;;;;;;;;;;;;;;4993526;28;1975;-43
2022/11/26 06:46:03;;;;;;;;;;;;;;;;;;4993346;28;1988;-45
2022/11/26 06:48:31;;;;;;;;;;;;;;;;;;4993330;28;2032;-46
2022/11/26 06:51:02;;;;;;;;;;;;;;;;;;4993408;28;2059;-50
2022/11/26 06:53:29;;;;;;;;;;;;;;;;;;4993389;28;1718;-44
2022/11/26 06:56:02;;;;;;;;;;;;;;;;;;4993358;28;2194;-45
2022/11/26 06:58:31;;;;;;;;;;;;;;;;;;4993255;28;1881;-46
2022/11/26 07:00:58;;;;;;;;;;;;;;;;;;4993094;28;2166;-45
2022/11/26 07:03:27;;;;;;;;;;;;;;;;;;4993275;28;2017;-45
2022/11/26 07:05:58;;;;;;;;;;;;;;;;;;4993268;28;1854;-49
2022/11/26 07:08:25;;;;;;;;;;;;;;;;;;4992651;28;1989;-43
2022/11/26 07:10:53;;;;;;;;;;;;;;;;;;4993130;28;1996;-45
2022/11/26 07:13:20;;;;;;;;;;;;;;;;;;4992927;28;1969;-44
2022/11/26 07:15:47;;;;;;;;;;;;;;;;;;4992792;28;1910;-47
2022/11/26 07:18:14;;;;;;;;;;;;;;;;;;4999828;28;1989;-44
2022/11/26 07:20:41;;;;;;;;;;;;;;;;;;5012714;28;1990;-44
2022/11/26 07:23:08;;;;;;;;;;;;;;;;;;5012500;28;2020;-44
2022/11/26 07:25:35;;;;;;;;;;;;;;;;;;5012174;28;1863;-46
2022/11/26 07:28:02;;;;;;;;;;;;;;;;;;5012029;28;2148;-46
2022/11/26 07:30:30;;;;;;;;;;;;;;;;;;5004334;28;2051;-46
2022/11/26 07:32:56;;;;;;;;;;;;;;;;;;4992637;28;1982;-46
2022/11/26 07:35:24;;;;;;;;;;;;;;;;;;4992647;28;1939;-44
2022/11/26 07:37:51;;;;;;;;;;;;;;;;;;4992543;28;2056;-45
2022/11/26 07:40:18;;;;;;;;;;;;;;;;;;4992630;28;2109;-50
2022/11/26 07:42:45;;;;;;;;;;;;;;;;;;4992216;28;1810;-43
2022/11/26 07:45:19;;;;;;;;;;;;;;;;;;5007534;28;2055;-47
2022/11/26 07:47:46;;;;;;;;;;;;;;;;;;4992384;28;2099;-47
2022/11/26 07:50:14;;;;;;;;;;;;;;;;;;4992193;28;2017;-46
2022/11/26 07:52:41;;;;;;;;;;;;;;;;;;4992460;28;1860;-45
2022/11/26 07:55:08;;;;;;;;;;;;;;;;;;4992101;28;2174;-45
2022/11/26 07:57:38;;;;;;;;;;;;;;;;;;4991940;28;1921;-46
2022/11/26 08:00:06;;;;;;;;;;;;;;;;;;4992177;28;1944;-46
2022/11/26 08:02:37;;;;;;;;;;;;;;;;;;4991909;28;2050;-45
2022/11/26 08:05:07;;;;;;;;;;;;;;;;;;4991962;28;1976;-46
2022/11/26 08:07:34;;;;;;;;;;;;;;;;;;4992329;28;2051;-46
2022/11/26 08:10:03;;;;;;;;;;;;;;;;;;4992064;28;1946;-45
2022/11/26 08:12:30;;;;;;;;;;;;;;;;;;4992095;28;1835;-47
2022/11/26 08:14:57;;;;;;;;;;;;;;;;;;4990500;28;2058;-47
2022/11/26 08:17:24;;;;;;;;;;;;;;;;;;4990641;28;1863;-48
2022/11/26 08:19:51;;;;;;;;;;;;;;;;;;5010045;28;1862;-45
2022/11/26 08:22:18;;;;;;;;;;;;;;;;;;4995326;28;1954;-44
2022/11/26 08:24:45;;;;;;;;;;;;;;;;;;4990327;28;1954;-45
2022/11/26 08:27:12;;;;;;;;;;;;;;;;;;4992308;28;2049;-44
2022/11/26 08:29:39;;;;;;;;;;;;;;;;;;4996635;28;1851;-44
2022/11/26 08:32:06;;;;;;;;;;;;;;;;;;4996367;28;1987;-44
2022/11/26 08:34:33;;;;;;;;;;;;;;;;;;4996457;28;1901;-45
2022/11/26 08:37:01;;;;;;;;;;;;;;;;;;4995040;28;2383;-43
2022/11/26 08:39:28;;;;;;;;;;;;;;;;;;4996703;28;2002;-46
2022/11/26 08:41:57;;;;;;;;;;;;;;;;;;4996690;28;1974;-43
2022/11/26 08:44:25;;;;;;;;;;;;;;;;;;4996705;28;1936;-43
2022/11/26 08:46:52;;;;;;;;;;;;;;;;;;4996587;28;1999;-44
2022/11/26 08:49:19;;;;;;;;;;;;;;;;;;4996476;28;1944;-44
2022/11/26 08:51:46;;;;;;;;;;;;;;;;;;4996838;28;1853;-44
2022/11/26 08:54:13;;;;;;;;;;;;;;;;;;5011793;28;2214;-44
2022/11/26 08:56:40;;;;;;;;;;;;;;;;;;4996595;28;1779;-45
2022/11/26 08:59:07;;;;;;;;;;;;;;;;;;4996292;28;2010;-48
2022/11/26 09:01:34;;;;;;;;;;;;;;;;;;4996688;28;2137;-42
2022/11/26 09:04:02;;;;;;;;;;;;;;;;;;4996468;28;1921;-45
2022/11/26 09:06:30;;;;;;;;;;;;;;;;;;4996442;28;1954;-44
2022/11/26 09:09:13;;;;;;;;;;;;;;;;;;5011570;28;1968;-44
2022/11/26 09:11:49;;;;;;;;;;;;;;;;;;4996442;28;2010;-45
2022/11/26 09:14:21;;;;;;;;;;;;;;;;;;4996601;28;1896;-43
2022/11/26 09:16:49;;;;;;;;;;;;;;;;;;4996848;28;2049;-44
2022/11/26 09:19:16;;;;;;;;;;;;;;;;;;4996201;28;1588;-44
2022/11/26 09:21:44;;;;;;;;;;;;;;;;;;4996332;28;1980;-45
2022/11/26 09:24:12;;;;;;;;;;;;;;;;;;4996314;28;2104;-45
2022/11/26 09:26:39;;;;;;;;;;;;;;;;;;4996528;28;1996;-45
2022/11/26 09:29:06;;;;;;;;;;;;;;;;;;4996106;28;2229;-48
2022/11/26 09:31:33;;;;;;;;;;;;;;;;;;4996303;28;2019;-44
2022/11/26 09:34:02;;;;;;;;;;;;;;;;;;4996119;28;1995;-45
2022/11/26 09:36:29;;;;;;;;;;;;;;;;;;4996463;28;1875;-44
2022/11/26 09:38:56;;;;;;;;;;;;;;;;;;4993489;28;1995;-45
2022/11/26 09:41:42;;;;;;;;;;;;;;;;;;4992799;28;1940;-47
2022/11/26 09:44:15;;;;;;;;;;;;;;;;;;4992872;28;1897;-47
2022/11/26 09:46:48;;;;;;;;;;;;;;;;;;4993260;28;1737;-46
2022/11/26 09:49:39;;;;;;;;;;;;;;;;;;5005250;28;1993;-43
2022/11/26 09:52:07;;;;;;;;;;;;;;;;;;4992941;28;1955;-44
2022/11/26 09:54:35;;;;;;;;;;;;;;;;;;4993015;28;2172;-45
2022/11/26 09:57:21;;;;;;;;;;;;;;;;;;4993110;28;1897;-46
2022/11/26 09:59:49;;;;;;;;;;;;;;;;;;4992900;28;1845;-45
2022/11/26 10:02:16;;;;;;;;;;;;;;;;;;4992762;28;2126;-45
2022/11/26 10:04:44;;;;;;;;;;;;;;;;;;4992662;28;2089;-45
2022/11/26 10:07:23;;;;;;;;;;;;;;;;;;4992539;28;1979;-48
2022/11/26 10:10:02;;;;;;;;;;;;;;;;;;4992694;28;2100;-44
2022/11/26 10:12:29;;;;;;;;;;;;;;;;;;4992225;28;1847;-44
2022/11/26 10:15:01;;;;;;;;;;;;;;;;;;4991827;28;1967;-45
2022/11/26 10:17:47;;;;;;;;;;;;;;;;;;4993150;28;1837;-47
2022/11/26 10:20:33;;;;;;;;;;;;;;;;;;5011918;28;2076;-44
2022/11/26 10:23:10;;;;;;;;;;;;;;;;;;5011780;28;2058;-45
2022/11/26 10:25:44;;;;;;;;;;;;;;;;;;5012049;28;1893;-45
2022/11/26 10:28:18;;;;;;;;;;;;;;;;;;5011614;28;2014;-45
2022/11/26 10:30:47;;;;;;;;;;;;;;;;;;5011827;28;2024;-46
2022/11/26 10:33:17;;;;;;;;;;;;;;;;;;5011676;28;1899;-47
2022/11/26 10:35:44;;;;;;;;;;;;;;;;;;5011677;28;2181;-48
2022/11/26 10:38:11;;;;;;;;;;;;;;;;;;5011926;28;2030;-47
2022/11/26 10:40:38;;;;;;;;;;;;;;;;;;5011802;28;2101;-45
2022/11/26 10:43:08;;;;;;;;;;;;;;;;;;5011793;28;1933;-43
2022/11/26 10:45:38;;;;;;;;;;;;;;;;;;5011392;28;1800;-47
2022/11/26 10:48:21;;;;;;;;;;;;;;;;;;5011373;28;1912;-42
2022/11/26 10:51:03;;;;;;;;;;;;;;;;;;5011288;28;1888;-46
2022/11/26 10:53:32;;;;;;;;;;;;;;;;;;5011387;28;1958;-46
2022/11/26 10:56:02;;;;;;;;;;;;;;;;;;5011512;28;2080;-47
2022/11/26 10:58:32;;;;;;;;;;;;;;;;;;5011199;28;2307;-44
2022/11/26 11:01:00;;;;;;;;;;;;;;;;;;5011129;28;2010;-45
2022/11/26 11:03:45;;;;;;;;;;;;;;;;;;5011027;28;1825;-45
2022/11/26 11:06:35;;;;;;;;;;;;;;;;;;5010980;28;1990;-47
2022/11/26 11:09:21;;;;;;;;;;;;;;;;;;5010695;28;1973;-46
2022/11/26 11:12:06;;;;;;;;;;;;;;;;;;5010915;28;1935;-44
2022/11/26 11:14:33;;;;;;;;;;;;;;;;;;5011052;28;1990;-45
2022/11/26 11:17:05;;;;;;;;;;;;;;;;;;5010660;28;1855;-43
2022/11/26 11:19:33;;;;;;;;;;;;;;;;;;4993199;28;1983;-44
2022/11/26 11:22:01;;;;;;;;;;;;;;;;;;4991343;28;1914;-45
2022/11/26 11:24:28;;;;;;;;;;;;;;;;;;4991067;28;1936;-44
2022/11/26 11:26:56;;;;;;;;;;;;;;;;;;4991590;28;2039;-46
2022/11/26 11:29:36;;;;;;;;;;;;;;;;;;4991273;28;2143;-45
2022/11/26 11:32:04;;;;;;;;;;;;;;;;;;4991120;28;2007;-45
2022/11/26 11:34:31;;;;;;;;;;;;;;;;;;4991121;28;2029;-44
2022/11/26 11:37:03;;;;;;;;;;;;;;;;;;4991113;28;1959;-45
2022/11/26 11:39:31;;;;;;;;;;;;;;;;;;4991010;28;1938;-46
2022/11/26 11:42:00;;;;;;;;;;;;;;;;;;4991019;28;1858;-48
2022/11/26 11:44:37;;;;;;;;;;;;;;;;;;4990954;28;1729;-45
2022/11/26 11:47:23;;;;;;;;;;;;;;;;;;4990689;28;1985;-47
2022/11/26 11:49:53;;;;;;;;;;;;;;;;;;4990728;28;1893;-42
2022/11/26 11:52:39;;;;;;;;;;;;;;;;;;4990786;28;1901;-44
2022/11/26 11:55:12;;;;;;;;;;;;;;;;;;4990729;28;1830;-46
2022/11/26 11:57:48;;;;;;;;;;;;;;;;;;4990745;28;2060;-45
2022/11/26 12:00:15;;;;;;;;;;;;;;;;;;4990054;28;1815;-46
2022/11/26 12:02:54;;;;;;;;;;;;;;;;;;4988267;28;2126;-45
2022/11/26 12:05:33;;;;;;;;;;;;;;;;;;4988934;28;1833;-44
2022/11/26 12:08:19;;;;;;;;;;;;;;;;;;4988867;28;1904;-44
2022/11/26 12:10:55;;;;;;;;;;;;;;;;;;4989156;28;2066;-44
2022/11/26 12:13:23;;;;;;;;;;;;;;;;;;4989084;28;1862;-44
2022/11/26 12:15:58;;;;;;;;;;;;;;;;;;4989285;28;1963;-44
2022/11/26 12:18:26;;;;;;;;;;;;;;;;;;4998867;28;2038;-47
2022/11/26 12:20:55;;;;;;;;;;;;;;;;;;5009802;28;1860;-45
2022/11/26 12:23:22;;;;;;;;;;;;;;;;;;5009925;28;1904;-45
2022/11/26 12:25:52;;;;;;;;;;;;;;;;;;5009986;28;2112;-45
2022/11/26 12:28:23;;;;;;;;;;;;;;;;;;5009626;28;2094;-45
2022/11/26 12:30:54;;;;;;;;;;;;;;;;;;5009967;28;1709;-47
2022/11/26 12:33:27;;;;;;;;;;;;;;;;;;5009685;28;1945;-47
2022/11/26 12:35:57;;;;;;;;;;;;;;;;;;5024791;28;1744;-44
2022/11/26 12:38:30;;;;;;;;;;;;;;;;;;5009834;28;2159;-46
2022/11/26 12:41:00;;;;;;;;;;;;;;;;;;5009855;28;2081;-45
2022/11/26 12:43:54;;;;;;;;;;;;;;;;;;5009935;28;1946;-44
2022/11/26 12:46:25;;;;;;;;;;;;;;;;;;5001317;28;1856;-48
2022/11/26 12:48:52;;;;;;;;;;;;;;;;;;5009555;28;2017;-46
2022/11/26 12:51:23;;;;;;;;;;;;;;;;;;5009581;28;1946;-43
2022/11/26 12:53:53;;;;;;;;;;;;;;;;;;5009845;28;1992;-45
2022/11/26 12:56:20;;;;;;;;;;;;;;;;;;5009862;28;1925;-43
2022/11/26 12:58:46;;;;;;;;;;;;;;;;;;5009702;28;1799;-48
2022/11/26 13:01:14;;;;;;;;;;;;;;;;;;5009330;28;1898;-47
2022/11/26 13:03:41;;;;;;;;;;;;;;;;;;5009764;28;1936;-45
2022/11/26 13:06:11;;;;;;;;;;;;;;;;;;5009714;28;2073;-44
2022/11/26 13:09:01;;;;;;;;;;;;;;;;;;5009397;28;1916;-45
2022/11/26 13:11:43;;;;;;;;;;;;;;;;;;4992529;28;1947;-47
2022/11/26 13:14:34;;;;;;;;;;;;;;;;;;4991722;28;1839;-45
2022/11/26 13:17:04;;;;;;;;;;;;;;;;;;4993806;28;1718;-45
2022/11/26 13:19:40;;;;;;;;;;;;;;;;;;4993540;28;2003;-46
2022/11/26 13:22:10;;;;;;;;;;;;;;;;;;4993470;28;1799;-46
2022/11/26 13:24:37;;;;;;;;;;;;;;;;;;4992982;28;1885;-45
2022/11/26 13:27:11;;;;;;;;;;;;;;;;;;4993720;28;1877;-46
2022/11/26 13:29:59;;;;;;;;;;;;;;;;;;4993383;28;2015;-45
2022/11/26 13:32:45;;;;;;;;;;;;;;;;;;4993479;28;1977;-46
2022/11/26 13:35:31;;;;;;;;;;;;;;;;;;4993358;28;2068;-46
2022/11/26 13:38:13;;;;;;;;;;;;;;;;;;4993534;28;2149;-46
2022/11/26 13:40:46;;;;;;;;;;;;;;;;;;4993089;28;2028;-44
2022/11/26 13:43:25;;;;;;;;;;;;;;;;;;4993090;28;1997;-47
2022/11/26 13:45:52;;;;;;;;;;;;;;;;;;4993196;28;1941;-49
2022/11/26 13:48:24;;;;;;;;;;;;;;;;;;4994324;28;1907;-50
2022/11/26 13:50:57;;;;;;;;;;;;;;;;;;4994531;28;2197;-46
2022/11/26 13:53:27;;;;;;;;;;;;;;;;;;5009581;28;1979;-45
2022/11/26 13:55:56;;;;;;;;;;;;;;;;;;4994375;28;2035;-45
2022/11/26 13:58:25;;;;;;;;;;;;;;;;;;4994513;28;1850;-47
2022/11/26 14:00:52;;;;;;;;;;;;;;;;;;4994532;28;1735;-44
2022/11/26 14:03:38;;;;;;;;;;;;;;;;;;4994265;28;2212;-45
2022/11/26 14:06:06;;;;;;;;;;;;;;;;;;4994348;28;1903;-44
2022/11/26 14:08:42;;;;;;;;;;;;;;;;;;4994224;28;2030;-45
2022/11/26 14:11:11;;;;;;;;;;;;;;;;;;4994278;28;2024;-45
2022/11/26 14:13:38;;;;;;;;;;;;;;;;;;4994340;28;1896;-47
2022/11/26 14:16:07;;;;;;;;;;;;;;;;;;4994358;28;2287;-46
2022/11/26 14:18:52;;;;;;;;;;;;;;;;;;5003552;28;1897;-46
2022/11/26 14:21:19;;;;;;;;;;;;;;;;;;5013425;28;1911;-45
2022/11/26 14:23:50;;;;;;;;;;;;;;;;;;5013256;28;1983;-46
2022/11/26 14:26:17;;;;;;;;;;;;;;;;;;4995477;28;2032;-49
2022/11/26 14:28:44;;;;;;;;;;;;;;;;;;4993892;28;1912;-47
2022/11/26 14:31:19;;;;;;;;;;;;;;;;;;4993730;28;1998;-46
2022/11/26 14:33:50;;;;;;;;;;;;;;;;;;4993706;28;2090;-49
2022/11/26 14:36:25;;;;;;;;;;;;;;;;;;4993819;28;2094;-46
2022/11/26 14:39:18;;;;;;;;;;;;;;;;;;4993957;28;2021;-46
2022/11/26 14:41:50;;;;;;;;;;;;;;;;;;4992541;28;2045;-46
2022/11/26 14:44:18;;;;;;;;;;;;;;;;;;4993632;28;2029;-47
2022/11/26 14:46:47;;;;;;;;;;;;;;;;;;4993443;28;2255;-47
2022/11/26 14:49:29;;;;;;;;;;;;;;;;;;4993866;28;2094;-45
2022/11/26 14:51:57;;;;;;;;;;;;;;;;;;4992970;28;1925;-47
2022/11/26 14:54:28;;;;;;;;;;;;;;;;;;4993435;28;2035;-43
2022/11/26 14:56:57;;;;;;;;;;;;;;;;;;4993220;28;1978;-48
2022/11/26 14:59:24;;;;;;;;;;;;;;;;;;4993434;28;2122;-47
2022/11/26 15:01:51;;;;;;;;;;;;;;;;;;4995360;28;1903;-45
2022/11/26 15:04:22;;;;;;;;;;;;;;;;;;5012881;28;1953;-46
2022/11/26 15:06:49;;;;;;;;;;;;;;;;;;5012699;28;1960;-45
2022/11/26 15:09:18;;;;;;;;;;;;;;;;;;5012700;28;1919;-46
2022/11/26 15:12:11;;;;;;;;;;;;;;;;;;5012813;28;2012;-46
2022/11/26 15:14:40;;;;;;;;;;;;;;;;;;5011890;28;2290;-48
2022/11/26 15:17:10;;;;;;;;;;;;;;;;;;5012444;28;2022;-45
2022/11/26 15:19:39;;;;;;;;;;;;;;;;;;4994690;28;2196;-47
2022/11/26 15:22:39;;;;;;;;;;;;;;;;;;4993065;28;2049;-48
2022/11/26 15:25:15;;;;;;;;;;;;;;;;;;4992212;28;2237;-47
2022/11/26 15:27:59;;;;;;;;;;;;;;;;;;4992974;28;1995;-47
2022/11/26 15:30:29;;;;;;;;;;;;;;;;;;4992345;28;1967;-49
2022/11/26 15:32:57;;;;;;;;;;;;;;;;;;4992704;28;2009;-46
2022/11/26 15:35:25;;;;;;;;;;;;;;;;;;4992586;28;1853;-48
2022/11/26 15:37:52;;;;;;;;;;;;;;;;;;4991210;28;2055;-44
2022/11/26 15:40:24;;;;;;;;;;;;;;;;;;4992495;28;1843;-49
2022/11/26 15:42:58;;;;;;;;;;;;;;;;;;4992649;28;1994;-46
2022/11/26 15:45:36;;;;;;;;;;;;;;;;;;4992502;28;1757;-46
2022/11/26 15:48:04;;;;;;;;;;;;;;;;;;4992250;28;1960;-49
2022/11/26 15:50:33;;;;;;;;;;;;;;;;;;4992187;28;1965;-48
2022/11/26 15:53:03;;;;;;;;;;;;;;;;;;4992568;28;2049;-48
2022/11/26 15:55:35;;;;;;;;;;;;;;;;;;4992473;28;2043;-47
2022/11/26 15:58:04;;;;;;;;;;;;;;;;;;4992087;28;1906;-46
2022/11/26 16:00:38;;;;;;;;;;;;;;;;;;4992328;28;2081;-46
2022/11/26 16:03:28;;;;;;;;;;;;;;;;;;4992030;28;2166;-49
2022/11/26 16:05:56;;;;;;;;;;;;;;;;;;4991006;28;1758;-46
2022/11/26 16:08:24;;;;;;;;;;;;;;;;;;4990598;28;2147;-46
2022/11/26 16:10:56;;;;;;;;;;;;;;;;;;4992102;28;1963;-46
2022/11/26 16:13:27;;;;;;;;;;;;;;;;;;4992053;28;2046;-47
2022/11/26 16:16:14;;;;;;;;;;;;;;;;;;4991948;28;2009;-48
2022/11/26 16:18:41;;;;;;;;;;;;;;;;;;5002581;28;2153;-48
2022/11/26 16:21:31;;;;;;;;;;;;;;;;;;5011607;28;1901;-46
2022/11/26 16:24:06;;;;;;;;;;;;;;;;;;5008647;28;1842;-46
2022/11/26 16:26:51;;;;;;;;;;;;;;;;;;5011341;28;1828;-46
2022/11/26 16:29:18;;;;;;;;;;;;;;;;;;5026765;28;2451;-47
2022/11/26 16:31:45;;;;;;;;;;;;;;;;;;5011633;28;2079;-46
2022/11/26 16:34:13;;;;;;;;;;;;;;;;;;5011570;28;2066;-47
2022/11/26 16:36:40;;;;;;;;;;;;;;;;;;5011599;28;2200;-46
2022/11/26 16:39:11;;;;;;;;;;;;;;;;;;5011237;28;2429;-49
2022/11/26 16:41:38;;;;;;;;;;;;;;;;;;5011437;28;1923;-46
2022/11/26 16:44:05;;;;;;;;;;;;;;;;;;5025769;28;2103;-46
2022/11/26 16:46:36;;;;;;;;;;;;;;;;;;5010925;28;1925;-46
2022/11/26 16:49:03;;;;;;;;;;;;;;;;;;5012894;28;2150;-48
2022/11/26 16:51:30;;;;;;;;;;;;;;;;;;5015111;28;1906;-44
2022/11/26 16:53:57;;;;;;;;;;;;;;;;;;5015274;28;1928;-47
2022/11/26 16:56:26;;;;;;;;;;;;;;;;;;5015059;28;2214;-44
2022/11/26 16:58:56;;;;;;;;;;;;;;;;;;5015036;28;1908;-48
2022/11/26 17:01:24;;;;;;;;;;;;;;;;;;5014848;28;1908;-46
2022/11/26 17:03:51;;;;;;;;;;;;;;;;;;5030354;28;2573;-48
2022/11/26 17:06:22;;;;;;;;;;;;;;;;;;5015185;28;1993;-46
2022/11/26 17:08:49;;;;;;;;;;;;;;;;;;5014762;28;1909;-46
2022/11/26 17:11:16;;;;;;;;;;;;;;;;;;5014975;28;2074;-48
2022/11/26 17:13:43;;;;;;;;;;;;;;;;;;5014520;28;1934;-48
2022/11/26 17:16:13;;;;;;;;;;;;;;;;;;5014714;28;2243;-48
2022/11/26 17:18:40;;;;;;;;;;;;;;;;;;5004528;28;2111;-47
2022/11/26 17:21:07;;;;;;;;;;;;;;;;;;4995270;28;2441;-48
2022/11/26 17:23:34;;;;;;;;;;;;;;;;;;4995098;28;1929;-46
2022/11/26 17:26:02;;;;;;;;;;;;;;;;;;4994972;28;1948;-44